createdAt,value
2018-08-03T00:01:03.142Z,10.20
2018-08-03T00:03:30.531Z,10.10
2018-08-03T00:05:57.949Z,10.10
2018-08-03T00:08:25.385Z,10.10
2018-08-03T00:10:52.829Z,10.10
2018-08-03T00:13:20.248Z,10.10
2018-08-03T00:15:47.664Z,10.00
2018-08-03T00:18:15.126Z,10.00
2018-08-03T00:23:09.941Z,9.90
2018-08-03T00:28:04.837Z,10.00
2018-08-03T00:30:32.277Z,10.10
2018-08-03T00:32:59.734Z,10.10
2018-08-03T00:35:27.171Z,10.10
2018-08-03T00:37:54.593Z,10.10
2018-08-03T00:40:22.176Z,10.20
2018-08-03T00:42:49.660Z,10.20
2018-08-03T00:45:17.073Z,10.20
2018-08-03T00:47:44.499Z,10.00
2018-08-03T00:50:11.895Z,9.90
2018-08-03T00:52:39.298Z,9.90
2018-08-03T00:55:06.752Z,9.90
2018-08-03T00:57:34.165Z,9.90
2018-08-03T01:00:01.594Z,9.90
2018-08-03T01:02:29.003Z,9.90
2018-08-03T01:04:56.481Z,9.90
2018-08-03T01:07:23.868Z,9.90
2018-08-03T01:09:52.908Z,9.90
2018-08-03T01:12:20.348Z,9.90
2018-08-03T01:14:47.760Z,9.90
2018-08-03T01:17:15.178Z,9.80
2018-08-03T01:19:42.581Z,9.70
2018-08-03T01:22:10.002Z,9.70
2018-08-03T01:24:37.403Z,9.60
2018-08-03T01:27:04.982Z,9.70
2018-08-03T01:29:32.387Z,9.70
2018-08-03T01:31:59.793Z,9.60
2018-08-03T01:34:27.238Z,9.70
2018-08-03T01:36:54.619Z,9.60
2018-08-03T01:39:22.043Z,9.60
2018-08-03T01:41:49.469Z,9.50
2018-08-03T01:44:16.869Z,9.50
2018-08-03T01:46:44.300Z,9.50
2018-08-03T01:49:11.708Z,9.40
2018-08-03T01:51:39.126Z,9.40
2018-08-03T01:54:06.550Z,9.40
2018-08-03T01:56:33.949Z,9.30
2018-08-03T01:59:01.388Z,9.30
2018-08-03T02:01:28.785Z,9.30
2018-08-03T02:03:56.193Z,9.30
2018-08-03T02:06:26.079Z,9.30
2018-08-03T02:08:53.468Z,9.30
2018-08-03T02:11:20.885Z,9.30
2018-08-03T02:13:48.329Z,9.20
2018-08-03T02:16:15.725Z,9.20
2018-08-03T02:18:43.135Z,9.20
2018-08-03T02:21:10.556Z,9.20
2018-08-03T02:23:37.964Z,9.20
2018-08-03T02:26:05.433Z,9.20
2018-08-03T02:28:32.863Z,9.30
2018-08-03T02:31:00.291Z,9.30
2018-08-03T02:33:27.721Z,9.30
2018-08-03T02:35:55.120Z,9.30
2018-08-03T02:38:22.595Z,9.30
2018-08-03T02:40:50.037Z,9.30
2018-08-03T02:43:17.447Z,9.30
2018-08-03T02:45:44.869Z,9.30
2018-08-03T02:48:12.274Z,9.20
2018-08-03T02:50:39.661Z,9.20
2018-08-03T02:53:08.194Z,9.20
2018-08-03T02:55:35.600Z,9.20
2018-08-03T02:58:03.037Z,9.20
2018-08-03T03:00:30.480Z,9.20
2018-08-03T03:02:57.902Z,9.20
2018-08-03T03:05:25.341Z,9.20
2018-08-03T03:07:52.770Z,9.30
2018-08-03T03:10:20.169Z,9.40
2018-08-03T03:12:47.602Z,9.40
2018-08-03T03:15:15.235Z,9.30
2018-08-03T03:17:42.649Z,9.30
2018-08-03T03:20:10.092Z,9.20
2018-08-03T03:22:37.468Z,9.20
2018-08-03T03:25:05.058Z,9.20
2018-08-03T03:27:32.449Z,9.20
2018-08-03T03:29:59.889Z,9.10
2018-08-03T03:32:27.283Z,9.10
2018-08-03T03:34:54.657Z,9.10
2018-08-03T03:37:22.061Z,9.10
2018-08-03T03:39:49.472Z,9.20
2018-08-03T03:42:16.901Z,9.20
2018-08-03T03:44:44.338Z,9.30
2018-08-03T03:47:11.757Z,9.30
2018-08-03T03:49:39.196Z,9.40
2018-08-03T03:52:06.851Z,9.60
2018-08-03T03:54:34.292Z,9.70
2018-08-03T03:57:01.701Z,10.30
2018-08-03T03:59:29.081Z,10.80
2018-08-03T04:01:56.531Z,11.10
2018-08-03T04:04:23.933Z,11.20
2018-08-03T04:06:51.374Z,11.20
2018-08-03T04:09:18.781Z,10.90
2018-08-03T04:11:46.210Z,11.10
2018-08-03T04:16:41.032Z,12.70
2018-08-03T04:19:08.444Z,13.80
2018-08-03T04:21:35.857Z,15.50
2018-08-03T04:24:03.309Z,16.10
2018-08-03T04:26:30.891Z,15.60
2018-08-03T04:28:58.468Z,15.20
2018-08-03T04:31:26.158Z,15.30
2018-08-03T04:33:53.552Z,15.60
2018-08-03T04:36:20.961Z,15.80
2018-08-03T04:38:48.387Z,16.50
2018-08-03T04:41:15.811Z,17.00
2018-08-03T04:43:43.256Z,17.30
2018-08-03T04:46:10.794Z,17.50
2018-08-03T04:48:38.242Z,17.40
2018-08-03T04:53:33.046Z,18.00
2018-08-03T04:56:00.781Z,18.50
2018-08-03T04:58:28.170Z,18.70
2018-08-03T05:00:55.609Z,19.10
2018-08-03T05:03:23.031Z,19.90
2018-08-03T05:05:50.491Z,20.10
2018-08-03T05:08:17.982Z,20.30
2018-08-03T05:10:45.427Z,20.40
2018-08-03T05:13:13.082Z,20.90
2018-08-03T05:15:40.480Z,22.40
2018-08-03T05:18:08.197Z,23.00
2018-08-03T05:20:35.644Z,23.30
2018-08-03T05:25:30.463Z,24.70
2018-08-03T05:30:25.313Z,25.70
2018-08-03T05:32:52.707Z,25.20
2018-08-03T05:35:20.168Z,25.10
2018-08-03T05:37:47.569Z,25.30
2018-08-03T05:40:15.008Z,26.10
2018-08-03T05:42:42.384Z,26.20
2018-08-03T05:45:09.875Z,26.60
2018-08-03T05:47:37.289Z,27.60
2018-08-03T05:50:05.101Z,28.90
2018-08-03T05:52:32.584Z,29.90
2018-08-03T05:54:59.924Z,30.60
2018-08-03T05:57:27.373Z,31.10
2018-08-03T05:59:55.079Z,31.70
2018-08-03T06:02:22.539Z,32.20
2018-08-03T06:04:49.958Z,32.50
2018-08-03T06:07:17.382Z,33.20
2018-08-03T06:09:44.839Z,32.80
2018-08-03T06:12:12.225Z,32.90
2018-08-03T06:14:39.621Z,32.40
2018-08-03T06:17:07.309Z,32.30
2018-08-03T06:19:34.712Z,31.90
2018-08-03T06:24:30.175Z,32.40
2018-08-03T06:26:57.566Z,32.20
2018-08-03T06:29:24.972Z,32.70
2018-08-03T06:31:52.371Z,33.10
2018-08-03T06:34:19.810Z,33.50
2018-08-03T06:36:47.218Z,33.20
2018-08-03T06:39:14.621Z,32.90
2018-08-03T06:41:42.609Z,32.10
2018-08-03T06:44:10.037Z,31.60
2018-08-03T06:46:37.537Z,30.70
2018-08-03T06:49:04.950Z,30.70
2018-08-03T06:51:32.418Z,30.30
2018-08-03T06:53:59.857Z,30.10
2018-08-03T06:56:27.485Z,29.40
2018-08-03T06:58:54.944Z,27.90
2018-08-03T07:01:22.336Z,27.10
2018-08-03T07:03:49.773Z,26.60
2018-08-03T07:06:17.205Z,25.10
2018-08-03T07:08:44.630Z,24.30
2018-08-03T07:11:12.027Z,24.00
2018-08-03T07:13:39.473Z,23.60
2018-08-03T07:16:06.909Z,23.10
2018-08-03T07:18:34.319Z,22.90
2018-08-03T07:21:01.728Z,23.10
2018-08-03T07:23:29.159Z,23.20
2018-08-03T07:25:56.592Z,23.40
2018-08-03T07:30:51.393Z,23.60
2018-08-03T07:35:46.181Z,23.10
2018-08-03T07:38:13.611Z,22.90
2018-08-03T07:40:41.089Z,23.10
2018-08-03T07:43:08.533Z,23.10
2018-08-03T07:45:35.924Z,23.40
2018-08-03T07:48:03.398Z,23.40
2018-08-03T07:50:30.797Z,23.10
2018-08-03T07:52:58.206Z,23.30
2018-08-03T07:55:25.653Z,23.30
2018-08-03T07:57:53.524Z,23.40
2018-08-03T08:00:21.029Z,23.40
2018-08-03T08:02:48.507Z,23.30
2018-08-03T08:05:15.942Z,23.10
2018-08-03T08:07:44.275Z,23.00
2018-08-03T08:10:11.705Z,22.80
2018-08-03T08:12:39.162Z,22.90
2018-08-03T08:15:06.615Z,22.80
2018-08-03T08:17:34.010Z,22.90
2018-08-03T08:20:01.435Z,23.10
2018-08-03T08:22:28.820Z,23.40
2018-08-03T08:24:56.807Z,23.50
2018-08-03T08:27:24.538Z,23.40
2018-08-03T08:29:51.966Z,23.80
2018-08-03T08:32:19.441Z,23.80
2018-08-03T08:34:46.854Z,24.30
2018-08-03T08:37:14.256Z,24.50
2018-08-03T08:39:41.718Z,25.00
2018-08-03T08:42:09.143Z,25.20
2018-08-03T08:44:36.571Z,25.60
2018-08-03T08:47:04.018Z,25.70
2018-08-03T08:49:31.437Z,25.50
2018-08-03T08:51:58.885Z,25.10
2018-08-03T08:54:26.341Z,24.60
2018-08-03T08:56:53.740Z,23.90
2018-08-03T08:59:21.190Z,23.60
2018-08-03T09:01:48.576Z,23.60
2018-08-03T09:04:16.030Z,23.70
2018-08-03T09:06:43.473Z,23.90
2018-08-03T09:11:39.110Z,24.50
2018-08-03T09:14:06.552Z,24.80
2018-08-03T09:16:34.005Z,25.20
2018-08-03T09:19:01.450Z,25.20
2018-08-03T09:21:28.915Z,25.10
2018-08-03T09:23:56.334Z,24.40
2018-08-03T09:26:23.734Z,24.20
2018-08-03T09:28:51.929Z,23.90
2018-08-03T09:31:19.340Z,23.90
2018-08-03T09:33:46.765Z,24.10
2018-08-03T09:36:14.157Z,24.30
2018-08-03T09:38:41.623Z,24.50
2018-08-03T09:41:09.032Z,24.60
2018-08-03T09:43:36.440Z,24.90
2018-08-03T09:46:03.919Z,25.20
2018-08-03T09:48:31.328Z,25.00
2018-08-03T09:50:58.752Z,24.90
2018-08-03T09:53:26.177Z,24.90
2018-08-03T09:55:53.585Z,25.00
2018-08-03T10:00:54.050Z,25.40
2018-08-03T10:03:21.470Z,25.70
2018-08-03T10:05:48.876Z,25.50
2018-08-03T10:08:16.269Z,25.30
2018-08-03T10:10:43.685Z,25.30
2018-08-03T10:13:11.072Z,25.40
2018-08-03T10:15:38.491Z,25.60
2018-08-03T10:18:05.903Z,25.60
2018-08-03T10:20:33.281Z,25.60
2018-08-03T10:23:00.730Z,25.60
2018-08-03T10:25:28.192Z,25.60
2018-08-03T10:27:55.625Z,25.80
2018-08-03T10:30:23.194Z,26.10
2018-08-03T10:32:50.619Z,26.10
2018-08-03T10:35:18.041Z,26.10
2018-08-03T10:37:45.444Z,26.20
2018-08-03T10:42:40.278Z,25.90
2018-08-03T10:45:07.727Z,25.70
2018-08-03T10:47:35.140Z,25.50
2018-08-03T10:50:02.559Z,25.20
2018-08-03T10:52:29.965Z,25.30
2018-08-03T10:54:57.344Z,25.50
2018-08-03T10:57:24.758Z,25.90
2018-08-03T10:59:52.164Z,26.10
2018-08-03T11:02:19.638Z,26.20
2018-08-03T11:04:47.065Z,25.80
2018-08-03T11:07:14.468Z,25.70
2018-08-03T11:09:41.870Z,25.60
2018-08-03T11:12:09.292Z,25.50
2018-08-03T11:14:36.789Z,25.40
2018-08-03T11:17:04.215Z,25.80
2018-08-03T11:19:31.632Z,25.90
2018-08-03T11:21:59.069Z,25.90
2018-08-03T11:24:26.459Z,25.80
2018-08-03T11:26:53.900Z,26.00
2018-08-03T11:29:21.300Z,26.30
2018-08-03T11:31:48.698Z,26.70
2018-08-03T11:34:16.101Z,27.10
2018-08-03T11:36:43.476Z,27.20
2018-08-03T11:39:11.617Z,26.70
2018-08-03T11:41:39.044Z,26.30
2018-08-03T11:44:06.727Z,26.30
2018-08-03T11:46:34.175Z,26.40
2018-08-03T11:49:01.602Z,26.30
2018-08-03T11:51:28.984Z,26.00
2018-08-03T11:53:56.410Z,26.10
2018-08-03T11:56:23.825Z,26.40
2018-08-03T11:58:51.453Z,26.50
2018-08-03T12:01:18.890Z,26.40
2018-08-03T12:03:46.322Z,26.40
2018-08-03T12:06:13.735Z,26.60
2018-08-03T12:08:41.172Z,26.80
2018-08-03T12:11:08.601Z,27.10
2018-08-03T12:13:36.036Z,27.20
2018-08-03T12:16:03.445Z,27.40
2018-08-03T12:18:30.857Z,27.60
2018-08-03T12:20:58.295Z,27.60
2018-08-03T12:23:25.756Z,27.60
2018-08-03T12:25:53.139Z,27.50
2018-08-03T12:28:20.552Z,27.60
2018-08-03T12:30:47.985Z,27.50
2018-08-03T12:33:15.415Z,27.50
2018-08-03T12:35:42.817Z,27.80
2018-08-03T12:38:10.228Z,27.90
2018-08-03T12:40:37.612Z,27.60
2018-08-03T12:43:05.045Z,27.40
2018-08-03T12:45:34.146Z,27.50
2018-08-03T12:47:59.868Z,27.60
2018-08-03T12:50:27.307Z,27.60
2018-08-03T12:52:54.841Z,27.50
2018-08-03T12:55:22.281Z,27.40
2018-08-03T12:57:49.688Z,27.20
2018-08-03T13:00:17.102Z,27.20
2018-08-03T13:02:44.581Z,27.40
2018-08-03T13:05:11.980Z,27.40
2018-08-03T13:07:39.636Z,27.40
2018-08-03T13:10:07.153Z,27.30
2018-08-03T13:12:34.579Z,27.40
2018-08-03T13:15:02.186Z,27.30
2018-08-03T13:17:29.623Z,27.30
2018-08-03T13:22:24.412Z,27.30
2018-08-03T13:24:52.423Z,27.10
2018-08-03T13:27:20.192Z,27.20
2018-08-03T13:29:47.566Z,27.30
2018-08-03T13:32:15.004Z,27.30
2018-08-03T13:34:43.254Z,27.50
2018-08-03T13:37:10.649Z,27.50
2018-08-03T13:39:38.083Z,27.60
2018-08-03T13:42:05.509Z,27.80
2018-08-03T13:44:32.956Z,27.90
2018-08-03T13:47:00.386Z,27.90
2018-08-03T13:49:27.807Z,27.90
2018-08-03T13:51:55.229Z,28.00
2018-08-03T13:54:22.660Z,27.70
2018-08-03T13:56:50.093Z,27.70
2018-08-03T13:59:17.489Z,27.60
2018-08-03T14:01:56.424Z,27.60
2018-08-03T14:04:23.953Z,27.50
2018-08-03T14:06:51.367Z,27.50
2018-08-03T14:09:18.801Z,27.60
2018-08-03T14:11:46.221Z,27.60
2018-08-03T14:14:13.642Z,27.60
2018-08-03T14:16:41.065Z,27.70
2018-08-03T14:19:08.490Z,27.60
2018-08-03T14:21:35.893Z,27.60
2018-08-03T14:24:03.378Z,27.60
2018-08-03T14:26:31.726Z,27.80
2018-08-03T14:28:59.128Z,27.80
2018-08-03T14:31:26.616Z,28.00
2018-08-03T14:33:53.987Z,28.10
2018-08-03T14:36:21.416Z,28.10
2018-08-03T14:38:48.825Z,28.00
2018-08-03T14:41:16.282Z,28.10
2018-08-03T14:43:43.702Z,28.10
2018-08-03T14:46:11.174Z,28.10
2018-08-03T14:48:38.625Z,27.80
2018-08-03T14:51:06.260Z,27.70
2018-08-03T14:53:33.672Z,27.60
2018-08-03T14:56:01.096Z,27.60
2018-08-03T14:58:28.526Z,27.60
2018-08-03T15:03:23.336Z,27.60
2018-08-03T15:05:50.792Z,27.30
2018-08-03T15:08:18.235Z,26.80
2018-08-03T15:10:45.664Z,26.50
2018-08-03T15:13:13.085Z,26.50
2018-08-03T15:15:40.480Z,26.50
2018-08-03T15:18:07.969Z,26.40
2018-08-03T15:20:35.403Z,26.30
2018-08-03T15:23:02.825Z,26.10
2018-08-03T15:25:30.267Z,26.00
2018-08-03T15:27:57.690Z,25.90
2018-08-03T15:30:25.113Z,25.80
2018-08-03T15:32:52.574Z,25.80
2018-08-03T15:35:19.993Z,25.90
2018-08-03T15:37:47.396Z,25.90
2018-08-03T15:40:14.801Z,25.90
2018-08-03T15:42:42.252Z,26.00
2018-08-03T15:45:09.673Z,25.90
2018-08-03T15:47:37.316Z,25.90
2018-08-03T15:50:04.904Z,25.90
2018-08-03T15:52:32.353Z,25.80
2018-08-03T15:54:59.736Z,25.90
2018-08-03T15:57:27.140Z,25.80
2018-08-03T15:59:54.569Z,25.80
2018-08-03T16:02:21.985Z,25.90
2018-08-03T16:04:49.389Z,25.80
2018-08-03T16:07:16.862Z,25.60
2018-08-03T16:09:44.290Z,25.60
2018-08-03T16:12:11.716Z,25.50
2018-08-03T16:14:39.124Z,25.30
2018-08-03T16:17:06.566Z,25.20
2018-08-03T16:19:33.972Z,25.30
2018-08-03T16:22:01.388Z,25.30
2018-08-03T16:24:28.817Z,25.40
2018-08-03T16:26:56.435Z,25.50
2018-08-03T16:29:23.902Z,25.50
2018-08-03T16:31:51.317Z,25.50
2018-08-03T16:34:18.729Z,25.40
2018-08-03T16:36:46.142Z,25.10
2018-08-03T16:39:13.591Z,24.90
2018-08-03T16:41:41.025Z,24.80
2018-08-03T16:44:08.474Z,24.70
2018-08-03T16:46:35.977Z,24.70
2018-08-03T16:49:03.437Z,24.80
2018-08-03T16:51:30.914Z,25.00
2018-08-03T16:53:58.370Z,25.10
2018-08-03T16:56:25.797Z,25.00
2018-08-03T16:58:53.225Z,24.90
2018-08-03T17:01:20.645Z,24.80
2018-08-03T17:03:48.293Z,24.70
2018-08-03T17:06:15.712Z,24.60
2018-08-03T17:11:10.530Z,24.30
2018-08-03T17:13:38.134Z,24.10
2018-08-03T17:16:06.181Z,24.00
2018-08-03T17:18:33.613Z,24.00
2018-08-03T17:21:00.996Z,23.80
2018-08-03T17:23:28.466Z,23.80
2018-08-03T17:25:55.889Z,23.80
2018-08-03T17:28:23.303Z,23.90
2018-08-03T17:30:51.669Z,23.80
2018-08-03T17:33:19.124Z,23.70
2018-08-03T17:35:46.512Z,23.70
2018-08-03T17:38:13.921Z,23.70
2018-08-03T17:40:41.353Z,23.70
2018-08-03T17:43:08.774Z,23.80
2018-08-03T17:45:36.219Z,23.90
2018-08-03T17:48:03.645Z,23.80
2018-08-03T17:50:31.098Z,23.70
2018-08-03T17:52:58.559Z,23.60
2018-08-03T17:55:25.948Z,23.60
2018-08-03T17:57:53.400Z,23.50
2018-08-03T18:00:20.821Z,23.40
2018-08-03T18:02:48.279Z,23.20
2018-08-03T18:05:15.670Z,23.10
2018-08-03T18:07:43.060Z,23.00
2018-08-03T18:10:10.493Z,22.90
2018-08-03T18:12:37.900Z,22.70
2018-08-03T18:15:06.109Z,22.60
2018-08-03T18:17:33.533Z,22.50
2018-08-03T18:20:00.957Z,22.40
2018-08-03T18:22:28.370Z,22.30
2018-08-03T18:24:55.801Z,22.10
2018-08-03T18:27:23.234Z,22.10
2018-08-03T18:29:50.682Z,22.00
2018-08-03T18:32:18.069Z,21.90
2018-08-03T18:34:45.562Z,21.90
2018-08-03T18:37:12.979Z,21.70
2018-08-03T18:39:40.437Z,21.50
2018-08-03T18:42:07.868Z,21.40
2018-08-03T18:44:35.269Z,21.20
2018-08-03T18:47:02.684Z,21.10
2018-08-03T18:49:30.097Z,21.00
2018-08-03T18:51:57.513Z,20.90
2018-08-03T18:54:24.962Z,20.80
2018-08-03T18:56:52.466Z,20.70
2018-08-03T18:59:19.914Z,20.50
2018-08-03T19:01:47.337Z,20.30
2018-08-03T19:04:14.762Z,20.20
2018-08-03T19:06:42.164Z,20.00
2018-08-03T19:09:09.769Z,19.80
2018-08-03T19:11:37.264Z,19.70
2018-08-03T19:14:04.687Z,19.50
2018-08-03T19:16:32.120Z,19.40
2018-08-03T19:18:59.542Z,19.20
2018-08-03T19:21:26.948Z,19.10
2018-08-03T19:23:54.392Z,18.90
2018-08-03T19:26:21.789Z,18.80
2018-08-03T19:28:49.197Z,18.60
2018-08-03T19:31:16.616Z,18.50
2018-08-03T19:33:44.022Z,18.40
2018-08-03T19:36:11.481Z,18.30
2018-08-03T19:38:38.894Z,18.10
2018-08-03T19:41:06.337Z,17.90
2018-08-03T19:43:33.717Z,17.80
2018-08-03T19:46:01.100Z,17.70
2018-08-03T19:48:28.509Z,17.70
2018-08-03T19:50:55.931Z,17.60
2018-08-03T19:55:50.718Z,17.20
2018-08-03T19:58:18.158Z,17.00
2018-08-03T20:00:45.603Z,16.90
2018-08-03T20:03:13.081Z,16.90
2018-08-03T20:05:40.473Z,17.00
2018-08-03T20:08:07.906Z,17.00
2018-08-03T20:10:35.337Z,16.80
2018-08-03T20:13:02.826Z,16.80
2018-08-03T20:15:30.243Z,16.80
2018-08-03T20:17:57.713Z,16.80
2018-08-03T20:20:25.140Z,16.70
2018-08-03T20:22:52.576Z,16.60
2018-08-03T20:25:20.010Z,16.50
2018-08-03T22:43:20.720Z,13.40
2018-08-03T23:27:44.087Z,12.70
2018-08-03T23:59:09.056Z,12.40
